Wetterdaten: Woche 08.07.13 - 14.07.13 (KW28)
Datum Zeit Temp. A. Feuchte A. Luftdruck Regen Wind Richtung Taupunkt Windchill Windben
08.07.2013 00:00 13,7 C 89 % 1030,9 hPa 0,0 l/m 0,0 km/h (0 Bft) N 11,9 C 13,7 C 0,0 km/h (0 Bft)
08.07.2013 01:00 12,9 C 90 % 1031,1 hPa 0,0 l/m 0,0 km/h (0 Bft) N 11,3 C 12,9 C 0,0 km/h (0 Bft)
08.07.2013 02:00 11,8 C 92 % 1031,2 hPa 0,0 l/m 0,0 km/h (0 Bft) N 10,6 C 11,8 C 0,0 km/h (0 Bft)
08.07.2013 03:00 10,8 C 93 % 1031,1 hPa 0,0 l/m 0,0 km/h (0 Bft) N 9,8 C 10,8 C 0,0 km/h (0 Bft)
08.07.2013 04:00 10,5 C 95 % 1031,1 hPa 0,0 l/m 0,0 km/h (0 Bft) N 9,7 C 10,5 C 0,0 km/h (0 Bft)
08.07.2013 05:00 10,9 C 94 % 1031,1 hPa 0,0 l/m 0,0 km/h (0 Bft) N 10,0 C 10,9 C 0,0 km/h (0 Bft)
08.07.2013 06:00 12,2 C 93 % 1031,1 hPa 0,0 l/m 0,0 km/h (0 Bft) N 11,0 C 12,2 C 0,0 km/h (0 Bft)
08.07.2013 07:00 15,0 C 90 % 1031,2 hPa 0,0 l/m 2,0 km/h (1 Bft) N-NO 13,3 C 15,0 C 3,6 km/h (1 Bft)
08.07.2013 08:00 17,7 C 84 % 1031,2 hPa 0,0 l/m 3,6 km/h (1 Bft) NO 15,0 C 17,7 C 7,5 km/h (2 Bft)
08.07.2013 09:00 20,1 C 77 % 1031,4 hPa 0,0 l/m 3,9 km/h (1 Bft) N-NO 16,0 C 20,1 C 8,8 km/h (2 Bft)
08.07.2013 10:00 21,5 C 70 % 1031,4 hPa 0,0 l/m 3,2 km/h (1 Bft) N 15,7 C 21,5 C 7,4 km/h (2 Bft)
08.07.2013 11:00 22,5 C 63 % 1031,3 hPa 0,0 l/m 4,4 km/h (1 Bft) N-NO 15,1 C 22,5 C 9,8 km/h (2 Bft)
08.07.2013 12:00 23,3 C 57 % 1031,1 hPa 0,0 l/m 5,3 km/h (1 Bft) NO 14,2 C 23,2 C 12,4 km/h (2 Bft)
08.07.2013 13:00 24,3 C 54 % 1030,6 hPa 0,0 l/m 5,2 km/h (1 Bft) NO 14,3 C 24,2 C 11,4 km/h (2 Bft)
08.07.2013 14:00 25,0 C 55 % 1029,9 hPa 0,0 l/m 4,4 km/h (1 Bft) O-NO 15,2 C 25,0 C 9,2 km/h (2 Bft)
08.07.2013 15:00 25,4 C 55 % 1029,5 hPa 0,0 l/m 5,9 km/h (2 Bft) N-NO 15,6 C 25,4 C 12,6 km/h (3 Bft)
08.07.2013 16:00 25,9 C 53 % 1029,1 hPa 0,0 l/m 5,2 km/h (1 Bft) N-NO 15,6 C 25,9 C 10,9 km/h (2 Bft)
08.07.2013 17:00 25,9 C 49 % 1028,9 hPa 0,0 l/m 5,4 km/h (1 Bft) N-NW 14,5 C 25,9 C 11,3 km/h (2 Bft)
08.07.2013 18:00 25,6 C 50 % 1028,4 hPa 0,0 l/m 4,9 km/h (1 Bft) N-NW 14,3 C 25,6 C 8,9 km/h (2 Bft)
08.07.2013 19:00 24,6 C 57 % 1028,1 hPa 0,0 l/m 4,5 km/h (1 Bft) N 15,4 C 24,6 C 8,2 km/h (2 Bft)
08.07.2013 20:00 22,7 C 66 % 1027,9 hPa 0,0 l/m 2,3 km/h (1 Bft) N 15,9 C 22,7 C 3,2 km/h (1 Bft)
08.07.2013 21:00 19,1 C 79 % 1027,9 hPa 0,0 l/m 0,5 km/h (0 Bft) N 15,4 C 19,1 C 0,7 km/h (0 Bft)
08.07.2013 22:00 16,9 C 85 % 1028,1 hPa 0,0 l/m 0,0 km/h (0 Bft) N 14,3 C 16,9 C 0,0 km/h (0 Bft)
08.07.2013 23:00 15,5 C 88 % 1028,1 hPa 0,0 l/m 0,8 km/h (0 Bft) N-NO 13,5 C 15,5 C 1,6 km/h (1 Bft)
09.07.2013 00:00 14,9 C 89 % 1028,2 hPa 0,0 l/m 0,0 km/h (0 Bft) N 13,1 C 14,9 C 0,0 km/h (0 Bft)
09.07.2013 01:00 14,0 C 91 % 1028,2 hPa 0,0 l/m 0,0 km/h (0 Bft) N 12,5 C 14,0 C 0,0 km/h (0 Bft)
09.07.2013 02:00 12,3 C 93 % 1028,0 hPa 0,0 l/m 0,0 km/h (0 Bft) N 11,2 C 12,3 C 0,0 km/h (0 Bft)
09.07.2013 03:00 12,1 C 95 % 1027,7 hPa 0,0 l/m 0,0 km/h (0 Bft) N 11,3 C 12,1 C 0,0 km/h (0 Bft)
09.07.2013 04:00 11,1 C 95 % 1027,5 hPa 0,0 l/m 0,0 km/h (0 Bft) N 10,3 C 11,1 C 0,0 km/h (0 Bft)
09.07.2013 05:00 10,2 C 95 % 1027,3 hPa 0,0 l/m 0,0 km/h (0 Bft) N 9,4 C 10,2 C 0,0 km/h (0 Bft)
09.07.2013 06:00 12,2 C 95 % 1027,2 hPa 0,0 l/m 0,0 km/h (0 Bft) N 11,5 C 12,2 C 0,0 km/h (0 Bft)
09.07.2013 07:00 15,2 C 90 % 1026,9 hPa 0,0 l/m 0,0 km/h (0 Bft) N 13,6 C 15,2 C 0,0 km/h (0 Bft)
09.07.2013 08:00 18,5 C 76 % 1026,7 hPa 0,0 l/m 1,2 km/h (1 Bft) N-NO 14,1 C 18,5 C 2,7 km/h (1 Bft)
09.07.2013 09:00 21,2 C 56 % 1026,5 hPa 0,0 l/m 1,8 km/h (1 Bft) N-NO 12,0 C 21,2 C 4,3 km/h (1 Bft)
09.07.2013 10:00 22,9 C 44 % 1026,1 hPa 0,0 l/m 2,3 km/h (1 Bft) NO 10,0 C 22,9 C 5,2 km/h (1 Bft)
09.07.2013 11:00 24,0 C 47 % 1025,8 hPa 0,0 l/m 2,9 km/h (1 Bft) NW 11,8 C 24,0 C 6,5 km/h (2 Bft)
09.07.2013 12:00 24,8 C 49 % 1025,2 hPa 0,0 l/m 2,5 km/h (1 Bft) N-NW 13,4 C 24,8 C 6,4 km/h (2 Bft)
09.07.2013 13:00 25,8 C 48 % 1024,5 hPa 0,0 l/m 3,0 km/h (1 Bft) W-NW 14,0 C 25,8 C 6,7 km/h (2 Bft)
09.07.2013 14:00 26,0 C 50 % 1023,7 hPa 0,0 l/m 4,4 km/h (1 Bft) NO 14,8 C 26,0 C 9,9 km/h (2 Bft)
09.07.2013 15:00 26,3 C 52 % 1023,2 hPa 0,0 l/m 3,4 km/h (1 Bft) NO 15,6 C 26,3 C 7,6 km/h (2 Bft)
09.07.2013 16:00 26,9 C 51 % 1022,6 hPa 0,0 l/m 3,0 km/h (1 Bft) N-NO 15,7 C 26,9 C 7,1 km/h (2 Bft)
09.07.2013 17:00 25,6 C 56 % 1022,0 hPa 0,0 l/m 4,2 km/h (1 Bft) N-NW 16,3 C 25,6 C 7,9 km/h (2 Bft)
09.07.2013 18:00 25,0 C 57 % 1021,5 hPa 0,0 l/m 3,6 km/h (1 Bft) NO 15,9 C 25,0 C 7,6 km/h (2 Bft)
09.07.2013 19:00 24,6 C 57 % 1021,0 hPa 0,0 l/m 3,9 km/h (1 Bft) N-NO 15,5 C 24,6 C 8,8 km/h (2 Bft)
09.07.2013 20:00 22,8 C 63 % 1020,9 hPa 0,0 l/m 3,0 km/h (1 Bft) N-NO 15,3 C 22,7 C 5,9 km/h (2 Bft)
09.07.2013 21:00 20,0 C 69 % 1020,9 hPa 0,0 l/m 0,0 km/h (0 Bft) N 14,2 C 20,0 C 0,0 km/h (0 Bft)
09.07.2013 22:00 16,7 C 79 % 1021,1 hPa 0,0 l/m 0,0 km/h (0 Bft) N 13,1 C 16,7 C 0,0 km/h (0 Bft)
09.07.2013 23:00 15,7 C 80 % 1021,0 hPa 0,0 l/m 0,0 km/h (0 Bft) N 12,2 C 15,7 C 0,0 km/h (0 Bft)
10.07.2013 00:00 15,6 C 80 % 1020,8 hPa 0,0 l/m 0,0 km/h (0 Bft) N 12,2 C 15,6 C 0,0 km/h (0 Bft)
10.07.2013 01:00 15,0 C 85 % 1020,8 hPa 0,0 l/m 0,0 km/h (0 Bft) N 12,5 C 15,0 C 0,0 km/h (0 Bft)
10.07.2013 02:00 14,6 C 88 % 1020,6 hPa 0,0 l/m 0,5 km/h (0 Bft) W 12,7 C 14,6 C 2,4 km/h (1 Bft)
10.07.2013 03:00 13,7 C 91 % 1020,2 hPa 0,0 l/m 0,1 km/h (0 Bft) N 12,2 C 13,7 C 0,4 km/h (0 Bft)
10.07.2013 04:00 13,1 C 93 % 1019,7 hPa 0,0 l/m 0,0 km/h (0 Bft) N 12,0 C 13,1 C 0,0 km/h (0 Bft)
10.07.2013 05:00 12,9 C 94 % 1019,5 hPa 0,0 l/m 0,1 km/h (0 Bft) N 12,0 C 12,9 C 0,7 km/h (0 Bft)
10.07.2013 06:00 13,7 C 92 % 1019,3 hPa 0,0 l/m 0,4 km/h (0 Bft) W-NW 12,3 C 13,7 C 1,6 km/h (1 Bft)
10.07.2013 07:00 14,9 C 88 % 1019,1 hPa 0,0 l/m 3,3 km/h (1 Bft) NW 12,9 C 14,8 C 8,2 km/h (2 Bft)
10.07.2013 08:00 14,8 C 89 % 1019,3 hPa 0,0 l/m 5,4 km/h (2 Bft) NW 13,0 C 14,5 C 11,0 km/h (2 Bft)
10.07.2013 09:00 15,5 C 89 % 1019,3 hPa 0,0 l/m 2,5 km/h (1 Bft) W 13,7 C 15,5 C 6,5 km/h (2 Bft)
10.07.2013 10:00 16,5 C 86 % 1019,1 hPa 0,0 l/m 4,0 km/h (1 Bft) NW 14,0 C 16,5 C 10,9 km/h (2 Bft)
10.07.2013 11:00 17,4 C 82 % 1018,9 hPa 0,0 l/m 4,3 km/h (1 Bft) W-NW 14,2 C 17,4 C 10,9 km/h (2 Bft)
10.07.2013 12:00 18,8 C 74 % 1018,5 hPa 0,0 l/m 6,9 km/h (2 Bft) NW 14,0 C 18,5 C 15,2 km/h (3 Bft)
10.07.2013 13:00 19,6 C 65 % 1018,3 hPa 0,0 l/m 7,6 km/h (2 Bft) W-NW 12,8 C 19,0 C 16,9 km/h (3 Bft)
10.07.2013 14:00 20,1 C 59 % 1018,1 hPa 0,0 l/m 7,7 km/h (2 Bft) N-NW 11,8 C 19,6 C 17,2 km/h (3 Bft)
10.07.2013 15:00 20,2 C 58 % 1017,9 hPa 0,0 l/m 7,4 km/h (2 Bft) N-NW 11,6 C 19,8 C 15,8 km/h (3 Bft)
10.07.2013 16:00 20,4 C 56 % 1017,7 hPa 0,0 l/m 7,8 km/h (2 Bft) N-NW 11,4 C 19,8 C 18,1 km/h (3 Bft)
10.07.2013 17:00 18,6 C 63 % 1017,9 hPa 0,0 l/m 8,3 km/h (2 Bft) N-NW 11,3 C 17,7 C 17,2 km/h (3 Bft)
10.07.2013 18:00 18,1 C 64 % 1017,8 hPa 0,0 l/m 7,1 km/h (2 Bft) NW 11,2 C 17,7 C 15,6 km/h (3 Bft)
10.07.2013 19:00 17,8 C 67 % 1017,8 hPa 0,0 l/m 4,4 km/h (1 Bft) W-NW 11,6 C 17,8 C 12,2 km/h (2 Bft)
10.07.2013 20:00 17,0 C 69 % 1017,9 hPa 0,0 l/m 3,4 km/h (1 Bft) W-SW 11,3 C 17,0 C 8,3 km/h (2 Bft)
10.07.2013 21:00 15,1 C 77 % 1018,3 hPa 0,0 l/m 1,6 km/h (1 Bft) W-SW 11,0 C 15,1 C 5,6 km/h (2 Bft)
10.07.2013 22:00 13,7 C 82 % 1018,5 hPa 0,0 l/m 0,8 km/h (0 Bft) W-NW 10,7 C 13,7 C 4,1 km/h (1 Bft)
10.07.2013 23:00 13,5 C 83 % 1018,5 hPa 0,0 l/m 2,0 km/h (1 Bft) W-SW 10,7 C 13,5 C 6,2 km/h (2 Bft)
11.07.2013 00:00 12,9 C 86 % 1018,5 hPa 0,0 l/m 0,8 km/h (0 Bft) NW 10,6 C 12,9 C 3,7 km/h (1 Bft)
11.07.2013 01:00 11,8 C 89 % 1018,6 hPa 0,0 l/m 0,2 km/h (0 Bft) N 10,1 C 11,8 C 2,5 km/h (1 Bft)
11.07.2013 02:00 11,0 C 92 % 1018,7 hPa 0,0 l/m 0,0 km/h (0 Bft) N 9,8 C 11,0 C 0,3 km/h (0 Bft)
11.07.2013 03:00 10,6 C 93 % 1018,8 hPa 0,0 l/m 0,1 km/h (0 Bft) N 9,5 C 10,6 C 0,3 km/h (0 Bft)
11.07.2013 04:00 9,9 C 94 % 1018,8 hPa 0,0 l/m 0,0 km/h (0 Bft) N 9,0 C 9,9 C 0,0 km/h (0 Bft)
11.07.2013 05:00 9,8 C 95 % 1018,8 hPa 0,0 l/m 0,0 km/h (0 Bft) N 9,0 C 9,8 C 0,0 km/h (0 Bft)
11.07.2013 06:00 10,6 C 95 % 1018,9 hPa 0,0 l/m 0,2 km/h (0 Bft) N 9,9 C 10,6 C 1,9 km/h (1 Bft)
11.07.2013 07:00 11,9 C 95 % 1019,1 hPa 0,0 l/m 0,4 km/h (0 Bft) W-SW 11,1 C 11,9 C 2,0 km/h (1 Bft)
11.07.2013 08:00 15,2 C 86 % 1019,1 hPa 0,0 l/m 2,5 km/h (1 Bft) NW 12,9 C 15,2 C 6,4 km/h (2 Bft)
11.07.2013 09:00 17,6 C 72 % 1019,1 hPa 0,0 l/m 6,4 km/h (2 Bft) N 12,5 C 16,9 C 12,3 km/h (2 Bft)
11.07.2013 10:00 18,4 C 63 % 1019,1 hPa 0,0 l/m 9,0 km/h (2 Bft) N-NW 11,1 C 17,3 C 17,3 km/h (3 Bft)
11.07.2013 11:00 18,6 C 63 % 1019,2 hPa 0,0 l/m 8,4 km/h (2 Bft) NW 11,3 C 17,7 C 16,1 km/h (3 Bft)
11.07.2013 12:00 18,7 C 63 % 1019,4 hPa 0,0 l/m 6,3 km/h (2 Bft) N-NW 11,5 C 18,4 C 12,1 km/h (2 Bft)
11.07.2013 13:00 19,5 C 61 % 1019,2 hPa 0,0 l/m 7,4 km/h (2 Bft) N-NW 11,8 C 19,0 C 14,6 km/h (3 Bft)
11.07.2013 14:00 20,5 C 57 % 1019,1 hPa 0,0 l/m 7,9 km/h (2 Bft) N 11,7 C 19,8 C 15,3 km/h (3 Bft)
11.07.2013 15:00 20,7 C 57 % 1019,0 hPa 0,0 l/m 6,6 km/h (2 Bft) N-NW 11,8 C 20,5 C 13,2 km/h (3 Bft)
11.07.2013 16:00 21,2 C 55 % 1018,8 hPa 0,0 l/m 7,0 km/h (2 Bft) N-NW 11,9 C 20,9 C 13,3 km/h (3 Bft)
11.07.2013 17:00 21,2 C 55 % 1018,5 hPa 0,0 l/m 7,6 km/h (2 Bft) N-NW 11,7 C 20,7 C 14,4 km/h (3 Bft)
11.07.2013 18:00 21,8 C 51 % 1018,3 hPa 0,0 l/m 6,8 km/h (2 Bft) W-NW 11,3 C 21,4 C 13,6 km/h (3 Bft)
11.07.2013 19:00 21,1 C 55 % 1018,4 hPa 0,0 l/m 4,9 km/h (1 Bft) NW 11,8 C 21,1 C 9,7 km/h (2 Bft)
11.07.2013 20:00 20,3 C 60 % 1018,7 hPa 0,0 l/m 3,0 km/h (1 Bft) NW 12,2 C 20,3 C 7,9 km/h (2 Bft)
11.07.2013 21:00 18,2 C 70 % 1019,2 hPa 0,0 l/m 4,6 km/h (1 Bft) NW 12,6 C 18,2 C 10,2 km/h (2 Bft)
11.07.2013 22:00 15,9 C 78 % 1019,8 hPa 0,0 l/m 3,1 km/h (1 Bft) N-NW 12,1 C 15,9 C 6,8 km/h (2 Bft)
11.07.2013 23:00 13,9 C 84 % 1020,2 hPa 0,0 l/m 0,5 km/h (0 Bft) N-NW 11,3 C 13,9 C 1,7 km/h (1 Bft)
12.07.2013 00:00 12,9 C 87 % 1020,5 hPa 0,0 l/m 0,2 km/h (0 Bft) N 10,9 C 12,9 C 1,7 km/h (1 Bft)
12.07.2013 01:00 12,0 C 90 % 1020,6 hPa 0,0 l/m 0,6 km/h (0 Bft) NW 10,4 C 12,0 C 2,9 km/h (1 Bft)
12.07.2013 02:00 11,3 C 92 % 1020,6 hPa 0,0 l/m 0,7 km/h (0 Bft) W 10,0 C 11,3 C 3,2 km/h (1 Bft)
12.07.2013 03:00 11,4 C 91 % 1020,8 hPa 0,0 l/m 1,7 km/h (1 Bft) W-NW 10,0 C 11,4 C 6,3 km/h (2 Bft)
12.07.2013 04:00 11,4 C 91 % 1021,0 hPa 0,0 l/m 1,1 km/h (0 Bft) W 9,9 C 11,4 C 5,1 km/h (1 Bft)
12.07.2013 05:00 11,4 C 89 % 1021,2 hPa 0,0 l/m 2,0 km/h (1 Bft) W-NW 9,7 C 11,4 C 6,3 km/h (2 Bft)
12.07.2013 06:00 11,5 C 88 % 1021,3 hPa 0,0 l/m 1,8 km/h (1 Bft) W 9,6 C 11,5 C 6,5 km/h (2 Bft)
12.07.2013 07:00 11,8 C 87 % 1021,3 hPa 0,0 l/m 2,7 km/h (1 Bft) W 9,8 C 11,8 C 6,5 km/h (2 Bft)
12.07.2013 08:00 12,5 C 85 % 1021,5 hPa 0,0 l/m 2,8 km/h (1 Bft) W-NW 10,0 C 12,5 C 7,2 km/h (2 Bft)
12.07.2013 09:00 13,5 C 82 % 1021,9 hPa 0,0 l/m 2,7 km/h (1 Bft) W 10,5 C 13,5 C 7,2 km/h (2 Bft)
12.07.2013 10:00 14,3 C 80 % 1022,1 hPa 0,0 l/m 3,8 km/h (1 Bft) NW 10,8 C 14,3 C 8,9 km/h (2 Bft)
12.07.2013 11:00 15,7 C 75 % 1022,0 hPa 0,0 l/m 4,6 km/h (1 Bft) NW 11,4 C 15,7 C 10,5 km/h (2 Bft)
12.07.2013 12:00 17,9 C 69 % 1021,7 hPa 0,0 l/m 4,1 km/h (1 Bft) W-SW 12,1 C 17,9 C 10,5 km/h (2 Bft)
12.07.2013 13:00 19,6 C 64 % 1021,3 hPa 0,0 l/m 4,8 km/h (1 Bft) W 12,6 C 19,6 C 12,0 km/h (2 Bft)
12.07.2013 14:00 21,1 C 59 % 1021,0 hPa 0,0 l/m 4,4 km/h (1 Bft) NW 12,8 C 21,1 C 11,3 km/h (2 Bft)
12.07.2013 15:00 22,1 C 55 % 1020,7 hPa 0,0 l/m 4,0 km/h (1 Bft) NW 12,7 C 22,1 C 11,3 km/h (2 Bft)
12.07.2013 16:00 22,1 C 56 % 1020,5 hPa 0,0 l/m 4,0 km/h (1 Bft) N-NW 12,9 C 22,1 C 9,7 km/h (2 Bft)
12.07.2013 17:00 22,1 C 55 % 1020,3 hPa 0,0 l/m 2,7 km/h (1 Bft) W 12,6 C 22,1 C 7,4 km/h (2 Bft)
12.07.2013 18:00 22,3 C 54 % 1020,1 hPa 0,0 l/m 3,0 km/h (1 Bft) NW 12,5 C 22,3 C 7,2 km/h (2 Bft)
12.07.2013 19:00 22,2 C 55 % 1020,0 hPa 0,0 l/m 2,1 km/h (1 Bft) W 12,7 C 22,2 C 6,4 km/h (2 Bft)
12.07.2013 20:00 20,9 C 60 % 1020,0 hPa 0,0 l/m 0,8 km/h (0 Bft) W 12,9 C 20,9 C 3,5 km/h (1 Bft)
12.07.2013 21:00 17,9 C 71 % 1020,3 hPa 0,0 l/m 0,1 km/h (0 Bft) N 12,5 C 17,9 C 1,1 km/h (0 Bft)
12.07.2013 22:00 14,7 C 82 % 1020,8 hPa 0,0 l/m 0,0 km/h (0 Bft) N 11,6 C 14,7 C 0,0 km/h (0 Bft)
12.07.2013 23:00 13,1 C 87 % 1021,2 hPa 0,0 l/m 1,1 km/h (1 Bft) N 10,9 C 13,1 C 2,3 km/h (1 Bft)
13.07.2013 00:00 12,5 C 89 % 1021,2 hPa 0,0 l/m 0,3 km/h (0 Bft) N-NW 10,7 C 12,5 C 0,8 km/h (0 Bft)
13.07.2013 01:00 11,9 C 90 % 1021,3 hPa 0,0 l/m 0,0 km/h (0 Bft) N 10,4 C 11,9 C 0,0 km/h (0 Bft)
13.07.2013 02:00 11,4 C 92 % 1021,3 hPa 0,0 l/m 0,0 km/h (0 Bft) N 10,1 C 11,4 C 0,0 km/h (0 Bft)
13.07.2013 03:00 10,2 C 92 % 1021,2 hPa 0,0 l/m 0,0 km/h (0 Bft) N 9,0 C 10,2 C 0,0 km/h (0 Bft)
13.07.2013 04:00 9,1 C 94 % 1021,2 hPa 0,0 l/m 0,0 km/h (0 Bft) N 8,2 C 9,1 C 0,0 km/h (0 Bft)
13.07.2013 05:00 8,7 C 95 % 1021,4 hPa 0,0 l/m 0,0 km/h (0 Bft) N 7,9 C 8,7 C 0,0 km/h (0 Bft)
13.07.2013 06:00 10,2 C 95 % 1021,5 hPa 0,0 l/m 0,0 km/h (0 Bft) N 9,5 C 10,2 C 0,0 km/h (0 Bft)
13.07.2013 07:00 12,2 C 91 % 1021,8 hPa 0,0 l/m 0,3 km/h (0 Bft) W 10,7 C 12,2 C 1,2 km/h (1 Bft)
13.07.2013 08:00 14,7 C 84 % 1021,8 hPa 0,0 l/m 2,0 km/h (1 Bft) N-NO 12,0 C 14,7 C 5,5 km/h (2 Bft)
13.07.2013 09:00 17,5 C 73 % 1021,9 hPa 0,0 l/m 3,5 km/h (1 Bft) NW 12,7 C 17,5 C 9,1 km/h (2 Bft)
13.07.2013 10:00 18,5 C 70 % 1022,0 hPa 0,0 l/m 4,2 km/h (1 Bft) W 12,8 C 18,5 C 9,8 km/h (2 Bft)
13.07.2013 11:00 19,6 C 65 % 1021,8 hPa 0,0 l/m 5,8 km/h (2 Bft) NW 12,7 C 19,6 C 13,0 km/h (3 Bft)
13.07.2013 12:00 20,5 C 61 % 1021,5 hPa 0,0 l/m 5,5 km/h (2 Bft) W 12,7 C 20,5 C 13,7 km/h (3 Bft)
13.07.2013 13:00 20,7 C 62 % 1021,5 hPa 0,0 l/m 5,1 km/h (1 Bft) N-NW 13,0 C 20,6 C 12,1 km/h (2 Bft)
13.07.2013 14:00 21,4 C 58 % 1021,3 hPa 0,0 l/m 6,0 km/h (2 Bft) SW 12,7 C 21,2 C 13,6 km/h (3 Bft)
13.07.2013 15:00 22,0 C 55 % 1021,2 hPa 0,0 l/m 5,1 km/h (1 Bft) W 12,6 C 22,0 C 12,4 km/h (2 Bft)
13.07.2013 16:00 22,0 C 53 % 1021,1 hPa 0,0 l/m 4,7 km/h (1 Bft) NW 12,0 C 22,0 C 11,3 km/h (2 Bft)
13.07.2013 17:00 22,7 C 50 % 1020,9 hPa 0,0 l/m 3,8 km/h (1 Bft) SW 11,7 C 22,7 C 10,2 km/h (2 Bft)
13.07.2013 18:00 22,2 C 52 % 1020,7 hPa 0,0 l/m 3,9 km/h (1 Bft) W-NW 11,8 C 22,2 C 9,5 km/h (2 Bft)
13.07.2013 19:00 21,5 C 55 % 1020,6 hPa 0,0 l/m 2,7 km/h (1 Bft) W 12,0 C 21,5 C 7,1 km/h (2 Bft)
13.07.2013 20:00 19,9 C 61 % 1020,6 hPa 0,0 l/m 1,1 km/h (1 Bft) W-SW 12,2 C 19,9 C 3,9 km/h (1 Bft)
13.07.2013 21:00 18,0 C 69 % 1020,8 hPa 0,0 l/m 0,0 km/h (0 Bft) N 12,1 C 18,0 C 0,0 km/h (0 Bft)
13.07.2013 22:00 16,4 C 76 % 1021,2 hPa 0,0 l/m 0,7 km/h (0 Bft) W-NW 12,3 C 16,4 C 3,5 km/h (1 Bft)
13.07.2013 23:00 15,0 C 84 % 1021,7 hPa 0,0 l/m 0,7 km/h (0 Bft) NW 12,4 C 15,0 C 2,5 km/h (1 Bft)
14.07.2013 00:00 13,6 C 88 % 1021,7 hPa 0,0 l/m 0,2 km/h (0 Bft) NW 11,7 C 13,6 C 0,7 km/h (0 Bft)
14.07.2013 01:00 13,5 C 90 % 1021,8 hPa 0,0 l/m 0,8 km/h (0 Bft) NW 11,9 C 13,5 C 2,1 km/h (1 Bft)
14.07.2013 02:00 13,2 C 91 % 1021,9 hPa 0,0 l/m 0,0 km/h (0 Bft) N 11,8 C 13,2 C 0,4 km/h (0 Bft)
14.07.2013 03:00 13,6 C 92 % 1021,5 hPa 0,0 l/m 0,1 km/h (0 Bft) N 12,2 C 13,6 C 0,5 km/h (0 Bft)
14.07.2013 04:00 14,1 C 91 % 1021,5 hPa 0,0 l/m 0,2 km/h (0 Bft) N 12,6 C 14,1 C 1,5 km/h (1 Bft)
14.07.2013 05:00 14,5 C 91 % 1021,4 hPa 0,0 l/m 0,8 km/h (0 Bft) W-SW 12,9 C 14,5 C 3,2 km/h (1 Bft)
14.07.2013 06:00 14,5 C 90 % 1021,5 hPa 0,0 l/m 2,3 km/h (1 Bft) W-NW 12,8 C 14,5 C 7,2 km/h (2 Bft)
14.07.2013 07:00 14,4 C 90 % 1021,8 hPa 0,0 l/m 3,3 km/h (1 Bft) W-SW 12,8 C 14,4 C 9,9 km/h (2 Bft)
14.07.2013 08:00 14,5 C 91 % 1021,8 hPa 0,0 l/m 3,2 km/h (1 Bft) N-NW 13,0 C 14,5 C 9,4 km/h (2 Bft)
14.07.2013 09:00 14,9 C 90 % 1022,0 hPa 0,0 l/m 2,6 km/h (1 Bft) SW 13,2 C 14,9 C 7,5 km/h (2 Bft)
14.07.2013 10:00 15,7 C 88 % 1021,9 hPa 0,0 l/m 3,4 km/h (1 Bft) W 13,7 C 15,7 C 8,8 km/h (2 Bft)
14.07.2013 11:00 16,4 C 86 % 1021,9 hPa 0,0 l/m 3,2 km/h (1 Bft) W 14,0 C 16,4 C 8,6 km/h (2 Bft)
14.07.2013 12:00 16,6 C 85 % 1022,0 hPa 0,0 l/m 3,4 km/h (1 Bft) W-NW 14,1 C 16,6 C 9,4 km/h (2 Bft)
14.07.2013 13:00 16,2 C 86 % 1021,8 hPa 0,0 l/m 4,1 km/h (1 Bft) W-NW 13,9 C 16,2 C 10,1 km/h (2 Bft)
14.07.2013 14:00 16,5 C 86 % 1021,6 hPa 0,0 l/m 4,5 km/h (1 Bft) SW 14,0 C 16,5 C 11,4 km/h (2 Bft)
14.07.2013 15:00 16,7 C 86 % 1021,5 hPa 0,0 l/m 3,7 km/h (1 Bft) W-NW 14,3 C 16,7 C 9,5 km/h (2 Bft)
14.07.2013 16:00 17,7 C 83 % 1021,2 hPa 0,0 l/m 3,9 km/h (1 Bft) S-SW 14,8 C 17,7 C 10,4 km/h (2 Bft)
14.07.2013 17:00 19,2 C 73 % 1020,9 hPa 0,0 l/m 4,7 km/h (1 Bft) W-NW 14,2 C 19,2 C 12,1 km/h (2 Bft)
14.07.2013 18:00 19,0 C 64 % 1020,8 hPa 0,0 l/m 5,7 km/h (2 Bft) W 11,9 C 18,8 C 14,4 km/h (3 Bft)
14.07.2013 19:00 18,4 C 63 % 1020,7 hPa 0,0 l/m 3,9 km/h (1 Bft) W-SW 11,2 C 18,4 C 10,6 km/h (2 Bft)
14.07.2013 20:00 16,9 C 70 % 1020,8 hPa 0,0 l/m 2,4 km/h (1 Bft) NW 11,3 C 16,9 C 7,5 km/h (2 Bft)
14.07.2013 21:00 15,6 C 76 % 1021,1 hPa 0,0 l/m 3,7 km/h (1 Bft) NW 11,4 C 15,6 C 9,4 km/h (2 Bft)
14.07.2013 22:00 14,0 C 82 % 1021,5 hPa 0,0 l/m 1,4 km/h (1 Bft) NW 10,9 C 14,0 C 4,1 km/h (1 Bft)
14.07.2013 23:00 12,5 C 87 % 1021,7 hPa 0,0 l/m 0,5 km/h (0 Bft) W-SW 10,4 C 12,5 C 2,3 km/h (1 Bft)
Min-Datum _ 13.07.13 09.07.13 10.07.13 - 08.07.13 - 13.07.13 13.07.13 08.07.13
_ Min-Zeit 05:10 10:10 16:40 - 00:00 - 05:10 05:10 00:00
Minimum _ 8,4 C 39 % 1017,6 hPa - 0,0 km/h (0 Bft) - 7,5 C 8,4 C 0,0 km/h (0 Bft)
Max-Datum _ 09.07.13 09.07.13 08.07.13 08.07.13 10.07.13 - 09.07.13 09.07.13 08.07.13
_ Max-Zeit 16:15 05:00 09:25 00:00 17:20 - 17:25 16:15 12:25
Maximum _ 27,5 C 96 % 1031,5 hPa 0,0 l/m 11,6 km/h
N-NW (2 Bft)
- 17,2 C 27,5 C 24,1 km/h
NO (4 Bft)
Durchschnitt _ 17,0 C 75 % 1022,4 hPa #0,0 l/m 2,7 km/h (1 Bft) NW 12,2 C 17,0 C 6,4 km/h (2 Bft)